Time;durP1;ratioP1;P1;durP2;ratioP2;P2;SDS_P1;SDS_P2;PMS_P1;PMS_P2;Temp;Humidity;BMP_temperature;BMP_pressure;BME280_temperature;BME280_humidity;BME280_pressure;Samples;Min_cycle;Max_cycle;Signal;HPM_P1;HPM_P2
2022/12/12 00:01:14;;;;;;;26.87;18.07;;;-0.60;99.90;;;;;;5036185;28;20467;-67
2022/12/12 00:03:40;;;;;;;26.70;16.50;;;-0.50;99.90;;;;;;5040544;28;21001;-67
2022/12/12 00:06:05;;;;;;;32.67;18.73;;;-0.60;99.90;;;;;;5044015;28;20435;-67
2022/12/12 00:08:31;;;;;;;25.10;15.30;;;-0.60;99.90;;;;;;5042012;28;20177;-67
2022/12/12 00:10:57;;;;;;;26.07;15.40;;;-0.50;99.90;;;;;;5038252;28;20213;-68
2022/12/12 00:13:23;;;;;;;23.73;15.17;;;-0.60;99.90;;;;;;5038633;28;20524;-68
2022/12/12 00:15:48;;;;;;;24.00;14.40;;;-0.60;99.90;;;;;;5037425;28;20192;-68
2022/12/12 00:18:14;;;;;;;27.13;14.37;;;-0.60;99.90;;;;;;5029046;28;20544;-66
2022/12/12 00:20:40;;;;;;;23.80;15.10;;;-0.70;99.90;;;;;;5029162;28;20206;-68
2022/12/12 00:23:05;;;;;;;25.70;15.10;;;-0.70;99.90;;;;;;5029234;28;20213;-67
2022/12/12 00:25:31;;;;;;;21.83;14.40;;;-0.70;99.90;;;;;;5028561;28;20179;-68
2022/12/12 00:27:56;;;;;;;21.70;14.20;;;-0.70;99.90;;;;;;5030140;28;20179;-67
2022/12/12 00:30:22;;;;;;;26.70;14.63;;;-0.70;99.90;;;;;;5029860;28;20254;-66
2022/12/12 00:32:47;;;;;;;20.00;14.40;;;-0.60;99.90;;;;;;5027808;28;20189;-66
2022/12/12 00:35:13;;;;;;;21.60;14.97;;;-0.70;99.90;;;;;;5029089;28;20182;-66
2022/12/12 00:37:39;;;;;;;25.27;15.67;;;-0.60;99.90;;;;;;5030001;28;20178;-66
2022/12/12 00:40:05;;;;;;;27.03;17.60;;;-0.60;99.90;;;;;;5037249;28;20712;-66
2022/12/12 00:42:31;;;;;;;26.47;15.50;;;-0.60;99.90;;;;;;5030928;28;20178;-66
2022/12/12 00:44:56;;;;;;;25.07;17.40;;;-0.60;99.90;;;;;;5032268;28;20870;-66
2022/12/12 00:47:22;;;;;;;23.07;15.77;;;-0.60;99.90;;;;;;5038967;28;20174;-66
2022/12/12 00:49:47;;;;;;;24.57;15.93;;;-0.60;99.90;;;;;;5045088;28;20216;-66
2022/12/12 00:52:13;;;;;;;23.20;15.97;;;-0.60;99.90;;;;;;5040536;28;20252;-66
2022/12/12 00:54:38;;;;;;;27.03;17.50;;;-0.60;99.90;;;;;;5039163;28;20179;-66
2022/12/12 00:57:04;;;;;;;25.20;16.50;;;-0.50;99.90;;;;;;5041346;28;20647;-66
2022/12/12 00:59:30;;;;;;;28.90;19.07;;;-0.60;99.90;;;;;;5034737;28;20260;-66
2022/12/12 01:01:55;;;;;;;27.27;18.97;;;-0.60;99.90;;;;;;5039222;28;20597;-66
2022/12/12 01:04:21;;;;;;;28.90;17.43;;;-0.70;99.90;;;;;;5035169;28;20675;-65
2022/12/12 01:06:46;;;;;;;27.10;18.50;;;-0.70;99.90;;;;;;5041255;28;20174;-66
2022/12/12 01:09:12;;;;;;;34.10;19.33;;;-0.70;99.90;;;;;;5040613;28;20209;-66
2022/12/12 01:11:37;;;;;;;31.57;19.20;;;-0.70;99.90;;;;;;5040550;28;20181;-66
2022/12/12 01:14:03;;;;;;;33.40;19.13;;;-0.90;99.90;;;;;;5037751;28;20182;-66
2022/12/12 01:16:30;;;;;;;27.43;18.50;;;-0.90;99.90;;;;;;5038888;28;20185;-66
2022/12/12 01:18:55;;;;;;;28.37;19.37;;;-0.90;99.90;;;;;;5038941;28;20493;-66
2022/12/12 01:21:21;;;;;;;32.57;20.17;;;-1.00;99.90;;;;;;5028266;28;20986;-66
2022/12/12 01:23:47;;;;;;;30.43;19.10;;;-1.10;99.90;;;;;;5029078;28;20205;-66
2022/12/12 01:26:16;;;;;;;37.40;21.90;;;-1.10;99.90;;;;;;5030375;28;20178;-66
2022/12/12 01:28:42;;;;;;;34.80;20.20;;;-1.20;99.90;;;;;;5032311;28;20566;-66
2022/12/12 01:31:08;;;;;;;29.63;18.87;;;-1.30;99.90;;;;;;5033136;28;20822;-66
2022/12/12 01:33:35;;;;;;;29.00;18.93;;;-1.30;99.90;;;;;;5032083;28;20428;-66
2022/12/12 01:36:02;;;;;;;35.67;20.30;;;-1.40;99.90;;;;;;5031333;28;20805;-66
2022/12/12 01:38:28;;;;;;;31.90;18.50;;;-1.20;99.90;;;;;;5033003;28;20465;-66
2022/12/12 01:40:54;;;;;;;28.23;18.87;;;-1.30;99.90;;;;;;5038270;28;20488;-66
2022/12/12 01:43:21;;;;;;;34.97;19.00;;;-1.30;99.90;;;;;;5031938;28;20198;-68
2022/12/12 01:46:00;;;;;;;33.73;18.97;;;-1.30;99.90;;;;;;5031007;28;20224;-66
2022/12/12 01:48:30;;;;;;;32.30;18.97;;;-1.40;99.90;;;;;;5027225;28;20972;-66
2022/12/12 01:51:00;;;;;;;28.40;18.53;;;-1.40;99.90;;;;;;5032598;28;20459;-66
2022/12/12 01:53:28;;;;;;;25.10;16.20;;;-1.40;99.90;;;;;;5031908;28;20429;-66
2022/12/12 01:55:55;;;;;;;26.00;16.00;;;-1.50;99.90;;;;;;5032501;28;20607;-66
2022/12/12 01:58:20;;;;;;;29.20;15.93;;;-1.50;99.90;;;;;;5030838;28;21110;-66
2022/12/12 02:00:46;;;;;;;28.17;16.53;;;-1.60;99.90;;;;;;5031366;28;20460;-66
2022/12/12 02:03:12;;;;;;;30.97;18.10;;;-1.60;99.90;;;;;;5031727;28;20774;-66
2022/12/12 02:05:50;;;;;;;31.27;16.30;;;-1.60;99.90;;;;;;5030279;28;20212;-66
2022/12/12 02:08:18;;;;;;;29.43;17.73;;;-1.60;99.90;;;;;;5026166;28;20188;-66
2022/12/12 02:10:44;;;;;;;28.00;17.37;;;-1.60;99.90;;;;;;5031208;28;20881;-66
2022/12/12 02:13:16;;;;;;;26.63;17.60;;;-1.70;99.90;;;;;;5031607;28;20958;-66
2022/12/12 02:15:50;;;;;;;34.87;18.97;;;-1.70;99.90;;;;;;5030594;28;20475;-66
2022/12/12 02:18:20;;;;;;;33.60;19.20;;;-1.80;99.90;;;;;;5027711;28;20499;-66
2022/12/12 02:21:10;;;;;;;32.43;18.00;;;-1.80;99.90;;;;;;5031324;28;20461;-66
2022/12/12 02:23:44;;;;;;;31.43;20.60;;;-1.90;99.90;;;;;;5030325;28;20492;-66
2022/12/12 02:26:41;;;;;;;33.00;20.20;;;-1.90;99.90;;;;;;5032050;28;20518;-66
2022/12/12 02:29:45;;;;;;;32.80;18.20;;;-1.80;99.90;;;;;;5029897;28;20801;-66
2022/12/12 02:32:33;;;;;;;28.00;17.37;;;-2.10;99.90;;;;;;5032000;28;20437;-66
2022/12/12 02:35:10;;;;;;;33.37;19.73;;;-2.20;99.90;;;;;;5031545;28;20433;-66
2022/12/12 02:37:54;;;;;;;26.43;17.20;;;-2.20;99.90;;;;;;5029086;28;20523;-66
2022/12/12 02:40:34;;;;;;;25.83;16.50;;;-2.30;99.90;;;;;;5031618;28;20510;-66
2022/12/12 02:43:11;;;;;;;29.90;17.10;;;-2.20;99.90;;;;;;5029485;28;20436;-66
2022/12/12 02:45:54;;;;;;;33.50;19.10;;;-2.30;99.90;;;;;;5028391;28;21028;-66
2022/12/12 02:48:27;;;;;;;26.67;17.57;;;-2.30;99.90;;;;;;5029518;28;20425;-66
2022/12/12 02:50:57;;;;;;;24.57;16.30;;;-2.30;99.90;;;;;;5030184;28;20449;-66
2022/12/12 02:53:23;;;;;;;30.73;18.20;;;-2.30;99.90;;;;;;5030789;28;20433;-66
2022/12/12 02:55:49;;;;;;;29.13;15.90;;;-2.40;99.90;;;;;;5030011;28;20436;-66
2022/12/12 02:58:17;;;;;;;28.93;17.70;;;-2.50;99.90;;;;;;5031139;28;20511;-66
2022/12/12 03:01:10;;;;;;;28.27;16.53;;;-2.40;99.90;;;;;;5031397;28;20459;-66
2022/12/12 03:10:09;;;;;;;36.77;16.73;;;-2.70;99.90;;;;;;5034428;28;20467;-67
2022/12/12 03:12:52;;;;;;;25.23;15.83;;;-2.60;99.90;;;;;;5029478;28;20436;-67
2022/12/12 03:15:33;;;;;;;28.90;16.60;;;-2.70;99.90;;;;;;5030563;28;20456;-66
2022/12/12 03:18:17;;;;;;;29.27;17.80;;;-2.80;99.90;;;;;;5026852;28;20617;-65
2022/12/12 03:20:51;;;;;;;31.13;17.50;;;-2.70;99.90;;;;;;5029133;28;20453;-66
2022/12/12 03:23:38;;;;;;;29.00;18.17;;;-2.60;99.90;;;;;;5029769;28;20546;-66
2022/12/12 03:26:15;;;;;;;26.07;15.50;;;-2.80;99.90;;;;;;5035958;28;20522;-66
2022/12/12 03:28:49;;;;;;;28.00;14.70;;;-2.80;99.90;;;;;;5036564;28;20452;-66
2022/12/12 03:31:18;;;;;;;25.83;16.97;;;-2.80;99.90;;;;;;5041642;28;20459;-66
2022/12/12 03:34:01;;;;;;;23.33;15.67;;;-2.70;99.90;;;;;;5047182;28;20447;-66
2022/12/12 03:36:32;;;;;;;28.43;18.00;;;-2.80;99.90;;;;;;5038848;28;20454;-66
2022/12/12 03:39:10;;;;;;;25.77;16.63;;;-2.70;99.90;;;;;;5030878;28;21448;-66
2022/12/12 03:41:43;;;;;;;36.53;17.97;;;-2.80;99.90;;;;;;5036733;28;20461;-66
2022/12/12 03:44:17;;;;;;;28.23;15.60;;;-2.80;99.90;;;;;;5038205;28;20861;-66
2022/12/12 03:47:06;;;;;;;37.30;18.20;;;-2.80;99.90;;;;;;5037865;28;20965;-66
2022/12/12 03:49:38;;;;;;;26.20;17.00;;;-2.90;99.90;;;;;;5028594;28;20981;-66
2022/12/12 03:52:29;;;;;;;26.87;16.70;;;-2.90;99.90;;;;;;5034224;28;20845;-66
2022/12/12 03:55:01;;;;;;;29.17;17.97;;;-3.00;99.90;;;;;;5029576;28;20875;-66
2022/12/12 03:57:36;;;;;;;29.90;18.00;;;-3.00;99.90;;;;;;5042843;28;20436;-66
2022/12/12 04:00:07;;;;;;;25.00;17.00;;;-2.90;99.90;;;;;;5035932;28;21032;-66
2022/12/12 04:02:51;;;;;;;31.83;17.80;;;-2.90;99.90;;;;;;5037319;28;20841;-66
2022/12/12 04:05:27;;;;;;;31.10;18.87;;;-2.90;99.90;;;;;;5042832;28;20456;-66
2022/12/12 04:08:10;;;;;;;29.37;17.60;;;-3.00;99.90;;;;;;5033380;28;20495;-66
2022/12/12 04:13:47;;;;;;;33.77;17.40;;;-3.00;99.90;;;;;;5029336;28;20443;-66
2022/12/12 04:16:19;;;;;;;33.57;16.93;;;-3.00;99.90;;;;;;5027774;28;20976;-66
2022/12/12 04:19:00;;;;;;;36.20;18.60;;;-3.00;99.90;;;;;;5028607;28;20941;-66
2022/12/12 04:24:47;;;;;;;24.30;15.33;;;-3.10;99.90;;;;;;5027189;28;20502;-65
2022/12/12 04:27:33;;;;;;;26.73;15.83;;;-3.00;99.90;;;;;;5026136;28;20435;-66
2022/12/12 04:30:10;;;;;;;34.30;17.67;;;-3.00;99.90;;;;;;5029776;28;21024;-68
2022/12/12 04:32:42;;;;;;;27.87;16.20;;;-3.00;99.90;;;;;;5028403;28;22127;-67
2022/12/12 04:35:32;;;;;;;29.70;19.53;;;-3.00;99.90;;;;;;5030179;28;20443;-67
2022/12/12 04:38:06;;;;;;;31.37;17.83;;;-3.10;99.90;;;;;;5027175;28;20957;-68
2022/12/12 04:40:36;;;;;;;30.17;17.90;;;-3.10;99.90;;;;;;5027951;28;20464;-67
2022/12/12 04:43:30;;;;;;;27.80;17.77;;;-3.10;99.90;;;;;;5030579;28;20444;-67
2022/12/12 04:46:00;;;;;;;26.67;18.47;;;-3.20;99.90;;;;;;5028770;28;20498;-68
2022/12/12 04:48:34;;;;;;;30.33;17.27;;;-3.20;99.90;;;;;;5026355;28;20441;-66
2022/12/12 04:51:02;;;;;;;25.77;18.80;;;-3.20;99.90;;;;;;5023886;28;20896;-66
2022/12/12 04:53:34;;;;;;;30.20;18.80;;;-3.10;99.90;;;;;;5029739;28;20539;-67
2022/12/12 04:56:05;;;;;;;31.30;18.23;;;-3.10;99.90;;;;;;5031003;28;20471;-67
2022/12/12 04:58:30;;;;;;;36.13;20.10;;;-3.10;99.90;;;;;;5038304;28;20517;-66
2022/12/12 05:01:07;;;;;;;32.27;19.80;;;-3.00;99.90;;;;;;5046196;28;20857;-66
2022/12/12 05:03:42;;;;;;;32.03;19.10;;;-3.00;99.90;;;;;;5045655;28;20904;-66
2022/12/12 05:06:11;;;;;;;31.20;18.03;;;-2.90;99.90;;;;;;5042534;28;20848;-67
2022/12/12 05:08:44;;;;;;;33.30;19.70;;;-2.80;99.90;;;;;;5041557;28;20543;-67
2022/12/12 05:11:10;;;;;;;31.27;19.07;;;-2.80;99.90;;;;;;5046262;28;20464;-66
2022/12/12 05:13:40;;;;;;;26.70;19.23;;;-2.80;99.90;;;;;;5042828;28;21156;-67
2022/12/12 05:16:33;;;;;;;31.70;19.17;;;-2.70;99.90;;;;;;5049077;28;20471;-68
2022/12/12 05:18:59;;;;;;;29.20;18.50;;;-2.70;99.90;;;;;;5037142;28;20850;-68
2022/12/12 05:21:25;;;;;;;29.00;18.10;;;-2.60;99.90;;;;;;5035876;28;20444;-67
2022/12/12 05:23:51;;;;;;;35.27;20.97;;;-2.50;99.90;;;;;;5033492;28;20464;-66
2022/12/12 05:26:23;;;;;;;32.53;19.40;;;-2.50;99.90;;;;;;5032426;28;20189;-67
2022/12/12 05:28:49;;;;;;;28.97;20.87;;;-2.50;99.90;;;;;;5032460;28;20182;-67
2022/12/12 05:31:16;;;;;;;34.73;20.10;;;-2.40;99.90;;;;;;5030441;28;20456;-68
2022/12/12 05:33:41;;;;;;;31.40;19.93;;;-2.40;99.90;;;;;;5031267;28;20437;-67
2022/12/12 05:36:07;;;;;;;30.47;21.10;;;-2.30;99.90;;;;;;5031441;28;20440;-66
2022/12/12 05:38:33;;;;;;;31.67;20.00;;;-2.30;99.90;;;;;;5033977;28;20683;-66
2022/12/12 05:40:58;;;;;;;35.47;21.40;;;-2.30;99.90;;;;;;5039475;28;20464;-68
2022/12/12 05:43:24;;;;;;;35.27;19.47;;;-2.30;99.90;;;;;;5033740;28;20864;-67
2022/12/12 05:45:50;;;;;;;33.23;20.07;;;-2.40;99.90;;;;;;5035791;28;20542;-67
2022/12/12 05:48:16;;;;;;;35.63;20.93;;;-2.40;99.90;;;;;;5030778;28;20174;-67
2022/12/12 05:50:41;;;;;;;31.27;20.33;;;-2.40;99.90;;;;;;5031899;28;20974;-66
2022/12/12 05:53:07;;;;;;;30.33;21.37;;;-2.30;99.90;;;;;;5032799;28;20717;-66
2022/12/12 05:55:33;;;;;;;31.33;20.50;;;-2.20;99.90;;;;;;5036286;28;20259;-66
2022/12/12 05:57:58;;;;;;;37.67;22.70;;;-2.20;99.90;;;;;;5030479;28;20174;-66
2022/12/12 06:00:24;;;;;;;34.80;21.27;;;-2.10;99.90;;;;;;5030485;28;20464;-67
2022/12/12 06:02:49;;;;;;;34.23;20.73;;;-2.10;99.90;;;;;;5031581;28;20182;-68
2022/12/12 06:05:15;;;;;;;33.77;19.90;;;-2.10;99.90;;;;;;5040442;28;20241;-69
2022/12/12 06:07:40;;;;;;;34.50;20.33;;;-2.10;99.90;;;;;;5033226;28;20181;-68
2022/12/12 06:10:07;;;;;;;33.20;22.00;;;-2.10;99.90;;;;;;5038519;28;20217;-69
2022/12/12 06:12:32;;;;;;;37.07;20.97;;;-2.00;99.90;;;;;;5031398;28;20209;-69
2022/12/12 06:14:58;;;;;;;36.67;21.07;;;-2.10;99.90;;;;;;5031404;28;20483;-69
2022/12/12 06:17:24;;;;;;;34.77;21.87;;;-2.00;99.90;;;;;;5032519;28;20182;-69
2022/12/12 06:19:50;;;;;;;32.53;21.20;;;-2.00;99.90;;;;;;5054892;28;20675;-68
2022/12/12 06:22:16;;;;;;;31.67;20.13;;;-1.90;99.90;;;;;;5030291;28;20440;-68
2022/12/12 06:24:42;;;;;;;32.60;21.40;;;-1.90;99.90;;;;;;5038169;28;20475;-69
2022/12/12 06:27:07;;;;;;;38.43;21.23;;;-1.90;99.90;;;;;;5044683;28;20583;-69
2022/12/12 06:29:33;;;;;;;33.87;20.37;;;-1.90;99.90;;;;;;5039507;28;20255;-69
2022/12/12 06:31:58;;;;;;;33.00;21.30;;;-1.90;99.90;;;;;;5037124;28;20658;-69
2022/12/12 06:34:24;;;;;;;37.80;21.80;;;-1.80;99.90;;;;;;5039170;28;20195;-68
2022/12/12 06:36:49;;;;;;;32.97;20.60;;;-1.80;99.90;;;;;;5044397;28;20280;-68
2022/12/12 06:39:15;;;;;;;32.50;21.30;;;-1.80;99.90;;;;;;5042236;28;20192;-69
2022/12/12 06:41:40;;;;;;;31.93;20.70;;;-1.90;99.90;;;;;;5042803;28;20185;-69
2022/12/12 06:44:06;;;;;;;29.13;20.70;;;-2.00;99.90;;;;;;5038680;28;20216;-68
2022/12/12 06:46:31;;;;;;;33.53;22.20;;;-2.00;99.90;;;;;;5038897;28;20243;-69
2022/12/12 06:48:57;;;;;;;36.07;20.70;;;-2.00;99.90;;;;;;5042390;28;20182;-68
2022/12/12 06:51:30;;;;;;;28.27;19.67;;;-2.00;99.90;;;;;;5041315;28;20205;-70
2022/12/12 06:53:56;;;;;;;33.63;21.50;;;-2.10;99.90;;;;;;5035944;28;20444;-68
2022/12/12 06:56:24;;;;;;;30.97;21.23;;;-2.10;99.90;;;;;;5039770;28;20452;-68
2022/12/12 06:58:50;;;;;;;31.83;18.70;;;-2.10;99.90;;;;;;5037200;28;20197;-68
2022/12/12 07:01:18;;;;;;;31.50;19.80;;;-2.00;99.90;;;;;;5032807;28;20471;-69
2022/12/12 07:03:44;;;;;;;32.43;21.47;;;-2.10;99.90;;;;;;5036421;28;20471;-68
2022/12/12 07:06:09;;;;;;;29.03;19.63;;;-2.10;99.90;;;;;;5031473;28;20444;-68
2022/12/12 07:08:36;;;;;;;35.43;21.57;;;-2.10;99.90;;;;;;5038953;28;20275;-69
2022/12/12 07:11:12;;;;;;;33.37;20.60;;;-2.00;99.90;;;;;;5035689;28;20680;-69
2022/12/12 07:13:38;;;;;;;32.60;23.27;;;-1.90;99.90;;;;;;5036730;28;20523;-68
2022/12/12 07:16:04;;;;;;;40.73;22.17;;;-1.80;99.90;;;;;;5040717;28;20589;-69
2022/12/12 07:18:29;;;;;;;30.83;19.97;;;-1.70;99.90;;;;;;5030946;28;20182;-69
2022/12/12 07:20:55;;;;;;;32.30;21.00;;;-1.70;99.90;;;;;;5022024;28;20452;-69
2022/12/12 07:23:21;;;;;;;34.73;23.13;;;-1.70;99.90;;;;;;5030189;28;20558;-69
2022/12/12 07:25:46;;;;;;;34.27;22.67;;;-1.70;99.90;;;;;;5029149;28;20190;-69
2022/12/12 07:28:13;;;;;;;32.30;21.00;;;-1.80;99.90;;;;;;5028948;28;20186;-69
2022/12/12 07:30:41;;;;;;;41.50;21.10;;;-1.80;99.90;;;;;;5030841;28;20610;-68
2022/12/12 07:33:06;;;;;;;33.83;22.27;;;-1.80;99.90;;;;;;5035892;28;20443;-70
2022/12/12 07:35:32;;;;;;;34.67;21.23;;;-1.80;99.90;;;;;;5030884;28;20433;-68
2022/12/12 07:37:58;;;;;;;33.37;20.10;;;-1.90;99.90;;;;;;5021790;28;20194;-76
2022/12/12 07:40:24;;;;;;;38.87;22.60;;;-1.90;99.90;;;;;;5004976;28;20464;-71
2022/12/12 07:42:49;;;;;;;40.30;23.83;;;-1.90;99.90;;;;;;5025272;28;20185;-68
2022/12/12 07:45:15;;;;;;;38.77;24.57;;;-2.00;99.90;;;;;;5030033;28;20468;-69
2022/12/12 07:47:40;;;;;;;43.13;22.83;;;-2.00;99.90;;;;;;5030821;28;20213;-69
2022/12/12 07:50:07;;;;;;;37.63;21.33;;;-2.00;99.90;;;;;;5031888;28;20276;-70
2022/12/12 07:52:32;;;;;;;35.30;21.63;;;-2.00;99.90;;;;;;5032424;28;20182;-68
2022/12/12 07:54:58;;;;;;;35.57;20.63;;;-1.90;99.90;;;;;;5031019;28;20447;-67
2022/12/12 07:57:23;;;;;;;34.37;21.60;;;-1.90;99.90;;;;;;5028079;28;20190;-68
2022/12/12 07:59:49;;;;;;;35.27;21.30;;;-1.90;99.90;;;;;;5023967;28;20206;-69
2022/12/12 08:02:14;;;;;;;34.70;20.80;;;-1.90;99.90;;;;;;5026242;28;20196;-67
2022/12/12 08:04:40;;;;;;;36.30;23.20;;;-1.90;99.90;;;;;;5023627;28;20225;-68
2022/12/12 08:07:05;;;;;;;40.03;21.60;;;-1.80;99.90;;;;;;5027591;28;20186;-68
2022/12/12 08:09:31;;;;;;;33.63;22.10;;;-1.80;99.90;;;;;;5027768;28;20609;-68
2022/12/12 08:11:58;;;;;;;37.80;21.70;;;-1.80;99.90;;;;;;5029693;28;20696;-68
2022/12/12 08:14:27;;;;;;;37.43;23.40;;;-1.90;99.90;;;;;;5032127;28;20273;-68
2022/12/12 08:16:52;;;;;;;36.70;23.43;;;-1.80;99.90;;;;;;5030717;28;20444;-69
2022/12/12 08:19:18;;;;;;;33.93;21.70;;;-1.80;99.90;;;;;;5023277;28;20505;-68
2022/12/12 08:21:44;;;;;;;34.17;23.60;;;-1.70;99.90;;;;;;5030694;28;20584;-68
2022/12/12 08:24:14;;;;;;;31.07;19.57;;;-1.60;99.90;;;;;;5028136;28;20232;-68
2022/12/12 08:26:41;;;;;;;36.80;22.93;;;-1.50;99.90;;;;;;5028845;28;20562;-68
2022/12/12 08:29:06;;;;;;;31.93;19.70;;;-1.40;99.90;;;;;;5029383;28;20440;-68
2022/12/12 08:31:32;;;;;;;35.73;22.13;;;-1.40;99.90;;;;;;5021743;28;20429;-68
2022/12/12 08:33:59;;;;;;;38.17;22.27;;;-1.40;99.90;;;;;;5033032;28;20190;-70
2022/12/12 08:36:30;;;;;;;32.93;22.70;;;-1.30;99.90;;;;;;5035029;28;20185;-67
2022/12/12 08:39:07;;;;;;;37.17;22.93;;;-1.30;99.90;;;;;;5032390;28;20451;-68
2022/12/12 08:41:34;;;;;;;29.43;20.00;;;-1.30;99.90;;;;;;5033367;28;20554;-68
2022/12/12 08:44:00;;;;;;;33.30;19.40;;;-1.30;99.90;;;;;;5023725;28;20452;-68
2022/12/12 08:46:25;;;;;;;30.73;20.17;;;-1.30;99.90;;;;;;5031241;28;20795;-68
2022/12/12 08:48:51;;;;;;;27.67;20.00;;;-1.20;99.90;;;;;;5033212;28;20446;-69
2022/12/12 08:51:17;;;;;;;31.43;19.57;;;-1.10;99.90;;;;;;5034331;28;20209;-68
2022/12/12 08:53:44;;;;;;;29.20;20.60;;;-1.00;99.90;;;;;;5028234;28;20190;-68
2022/12/12 08:56:10;;;;;;;32.80;21.20;;;-0.80;99.90;;;;;;5040637;28;20499;-69
2022/12/12 08:58:35;;;;;;;34.00;21.10;;;-0.70;99.90;;;;;;5026911;28;20521;-68
2022/12/12 09:01:01;;;;;;;32.97;20.40;;;-0.60;99.90;;;;;;5034319;28;20696;-68
2022/12/12 09:03:27;;;;;;;29.87;19.00;;;-0.40;99.90;;;;;;5029978;28;20206;-69
2022/12/12 09:05:52;;;;;;;30.77;20.60;;;-0.30;99.90;;;;;;5036086;28;20583;-68
2022/12/12 09:08:18;;;;;;;32.70;20.33;;;-0.20;99.90;;;;;;5033158;28;20221;-68
2022/12/12 09:10:48;;;;;;;33.00;20.10;;;-0.20;99.90;;;;;;5032010;28;20676;-69
2022/12/12 09:13:14;;;;;;;30.10;18.93;;;-0.10;99.90;;;;;;5035049;28;20249;-67
2022/12/12 09:15:40;;;;;;;26.17;18.97;;;0.30;99.90;;;;;;5034695;28;20516;-69
2022/12/12 09:18:05;;;;;;;28.83;20.10;;;0.50;99.90;;;;;;5030124;28;20185;-67
2022/12/12 09:20:31;;;;;;;32.23;19.80;;;0.60;99.90;;;;;;5033916;28;20198;-68
2022/12/12 09:22:56;;;;;;;33.20;20.07;;;0.60;99.90;;;;;;5029398;28;20182;-68
2022/12/12 09:25:22;;;;;;;30.17;21.07;;;0.70;99.90;;;;;;5027837;28;20205;-68
2022/12/12 09:27:47;;;;;;;27.27;19.00;;;0.60;99.90;;;;;;5033068;28;20534;-68
2022/12/12 09:30:13;;;;;;;30.63;18.50;;;0.50;99.90;;;;;;5035951;28;20652;-68
2022/12/12 09:32:40;;;;;;;26.53;17.00;;;0.20;99.90;;;;;;5036772;28;20185;-69
2022/12/12 09:35:06;;;;;;;28.90;19.17;;;0.00;99.90;;;;;;5033681;28;20443;-68
2022/12/12 09:37:32;;;;;;;27.60;17.87;;;0.00;99.90;;;;;;5029996;28;20429;-68
2022/12/12 09:39:58;;;;;;;27.63;16.47;;;0.10;99.90;;;;;;5028885;28;20468;-69
2022/12/12 09:42:26;;;;;;;29.07;19.67;;;0.20;99.90;;;;;;5041095;28;20216;-68
2022/12/12 09:44:58;;;;;;;27.60;18.63;;;0.20;99.90;;;;;;5032580;28;20206;-70
2022/12/12 09:47:33;;;;;;;26.00;17.80;;;0.20;99.90;;;;;;5032656;28;20524;-67
2022/12/12 09:50:05;;;;;;;27.60;18.23;;;0.00;99.90;;;;;;5032358;28;20451;-68
2022/12/12 09:52:33;;;;;;;25.20;16.00;;;0.00;99.90;;;;;;5037079;28;20761;-67
2022/12/12 09:55:21;;;;;;;25.00;19.50;;;0.00;99.90;;;;;;5029967;28;20451;-69
2022/12/12 09:58:01;;;;;;;29.43;18.33;;;-0.10;99.90;;;;;;5033021;28;20802;-69
2022/12/12 10:00:30;;;;;;;27.93;18.83;;;0.00;99.90;;;;;;5031065;28;20468;-69
2022/12/12 10:03:10;;;;;;;24.50;17.23;;;0.20;99.90;;;;;;5032881;28;20433;-68
2022/12/12 10:05:49;;;;;;;27.73;18.20;;;0.30;99.90;;;;;;5031356;28;20491;-70
2022/12/12 10:08:39;;;;;;;26.27;16.90;;;0.00;99.90;;;;;;5030947;28;20432;-69
2022/12/12 10:11:48;;;;;;;26.67;17.90;;;-0.10;99.90;;;;;;5032025;28;20475;-68
2022/12/12 10:13:55;;;;;;;24.63;18.07;;;0.10;99.90;;;;;;5042515;28;20428;-70
2022/12/12 10:16:21;;;;;;;30.63;17.00;;;0.30;99.90;;;;;;5037679;28;20439;-68
2022/12/12 10:18:50;;;;;;;23.90;17.50;;;0.40;99.90;;;;;;5026638;28;20439;-68
2022/12/12 10:21:26;;;;;;;27.60;18.20;;;0.60;99.90;;;;;;5026495;28;20881;-68
2022/12/12 10:24:23;;;;;;;24.60;16.13;;;0.80;99.90;;;;;;5032262;28;20487;-68
2022/12/12 10:26:49;;;;;;;21.67;13.70;;;0.90;99.90;;;;;;5031593;28;20484;-68
2022/12/12 10:29:20;;;;;;;23.43;17.23;;;0.70;99.90;;;;;;5029167;28;20437;-69
2022/12/12 10:31:48;;;;;;;26.60;17.93;;;0.50;99.90;;;;;;5032898;28;20197;-68
2022/12/12 10:34:23;;;;;;;26.13;14.97;;;0.60;99.90;;;;;;5038724;28;20436;-68
2022/12/12 10:37:17;;;;;;;26.60;17.40;;;0.90;99.90;;;;;;5030807;28;20559;-68
2022/12/12 10:40:02;;;;;;;26.27;17.77;;;1.00;99.90;;;;;;5031892;28;20461;-68
2022/12/12 10:42:54;;;;;;;26.00;16.87;;;1.50;99.90;;;;;;5030471;28;20452;-69
2022/12/12 10:45:22;;;;;;;27.70;17.57;;;2.30;99.90;;;;;;5028714;28;21029;-70
2022/12/12 10:47:48;;;;;;;21.20;16.23;;;3.50;99.90;;;;;;5034106;28;20468;-69
2022/12/12 10:50:22;;;;;;;18.60;14.93;;;4.70;99.90;;;;;;5017932;28;20616;-69
2022/12/12 10:52:48;;;;;;;20.87;15.30;;;5.90;99.90;;;;;;5029581;28;20777;-68
2022/12/12 10:55:26;;;;;;;23.20;17.27;;;6.40;99.90;;;;;;5023268;28;20434;-69
2022/12/12 10:58:03;;;;;;;21.93;17.90;;;6.70;99.90;;;;;;5027746;28;20221;-71
2022/12/12 11:00:41;;;;;;;22.43;17.50;;;6.60;99.90;;;;;;5026720;28;20457;-69
2022/12/12 11:03:34;;;;;;;25.57;18.90;;;6.70;99.90;;;;;;5025990;28;20434;-71
2022/12/12 11:06:05;;;;;;;22.60;16.83;;;6.50;99.90;;;;;;5029359;28;20447;-69
2022/12/12 11:08:35;;;;;;;26.83;16.73;;;6.50;99.90;;;;;;5033788;28;20539;-69
2022/12/12 11:11:15;;;;;;;21.30;17.10;;;6.80;99.90;;;;;;5031436;28;20504;-70
2022/12/12 11:13:50;;;;;;;22.40;16.37;;;7.60;99.90;;;;;;5029345;28;20433;-70
2022/12/12 11:16:20;;;;;;;22.40;16.57;;;9.50;96.50;;;;;;5029232;28;20443;-69
2022/12/12 11:18:56;;;;;;;21.10;15.13;;;10.80;90.10;;;;;;5031538;28;20433;-70
2022/12/12 11:21:22;;;;;;;16.47;13.60;;;11.50;80.00;;;;;;5025774;28;20460;-68
2022/12/12 11:23:52;;;;;;;17.47;13.60;;;11.30;77.80;;;;;;5029848;28;20472;-71
2022/12/12 11:26:20;;;;;;;18.40;12.63;;;10.90;75.30;;;;;;5031742;28;20179;-68
2022/12/12 11:29:12;;;;;;;17.33;14.37;;;11.70;74.70;;;;;;5027738;28;20461;-72
2022/12/12 11:31:38;;;;;;;16.67;13.90;;;13.10;64.50;;;;;;5026720;28;20469;-68
2022/12/12 11:34:05;;;;;;;15.87;14.27;;;13.80;61.50;;;;;;5030383;28;20437;-68
2022/12/12 11:36:36;;;;;;;16.43;12.73;;;15.40;56.20;;;;;;5026717;28;20482;-69
2022/12/12 11:39:13;;;;;;;17.50;13.20;;;15.00;53.20;;;;;;5026364;28;20436;-66
2022/12/12 11:42:01;;;;;;;13.63;12.23;;;15.30;51.40;;;;;;5041173;28;20510;-69
2022/12/12 11:44:33;;;;;;;14.63;13.03;;;16.30;50.30;;;;;;5032590;28;20523;-66
2022/12/12 11:47:17;;;;;;;12.83;11.10;;;16.60;47.80;;;;;;5034859;28;20432;-69
2022/12/12 11:49:50;;;;;;;13.70;12.30;;;16.10;46.50;;;;;;5028440;28;20447;-67
2022/12/12 11:52:19;;;;;;;13.77;11.73;;;16.80;45.60;;;;;;5025016;28;20433;-68
2022/12/12 11:54:45;;;;;;;19.10;11.50;;;16.90;43.50;;;;;;5030962;28;20901;-68
2022/12/12 11:57:30;;;;;;;13.43;12.10;;;16.90;43.60;;;;;;5030956;28;20903;-68
2022/12/12 12:00:31;;;;;;;11.90;10.80;;;17.50;43.80;;;;;;5023537;28;20492;-66
2022/12/12 12:03:20;;;;;;;11.93;10.73;;;18.70;40.70;;;;;;5015602;28;20511;-69
2022/12/12 12:06:11;;;;;;;13.27;10.50;;;19.50;38.60;;;;;;5030443;28;20449;-67
2022/12/12 12:09:02;;;;;;;11.20;10.00;;;18.50;38.40;;;;;;5024724;28;20437;-67
2022/12/12 12:11:44;;;;;;;11.03;9.90;;;17.60;39.50;;;;;;5031996;28;20549;-67
2022/12/12 12:14:26;;;;;;;10.37;9.33;;;17.10;40.10;;;;;;5029492;28;20436;-67
2022/12/12 12:17:09;;;;;;;8.70;7.80;;;19.20;39.00;;;;;;5038462;28;20482;-68
2022/12/12 12:19:55;;;;;;;12.43;9.37;;;20.10;36.20;;;;;;5024987;28;20456;-68
2022/12/12 12:22:49;;;;;;;8.00;6.53;;;19.80;36.50;;;;;;5025306;28;20437;-68
2022/12/12 12:25:33;;;;;;;8.07;7.43;;;21.70;34.60;;;;;;5023132;28;20940;-67
2022/12/12 12:28:45;;;;;;;9.10;7.60;;;23.00;32.90;;;;;;5025072;28;20441;-67
2022/12/12 12:31:27;;;;;;;6.47;5.87;;;23.90;30.00;;;;;;5027847;28;20460;-67
2022/12/12 12:34:01;;;;;;;7.23;5.40;;;24.60;29.20;;;;;;5028611;28;20921;-70
2022/12/12 12:37:10;;;;;;;8.67;7.77;;;25.40;28.20;;;;;;5029321;28;20440;-70
2022/12/12 12:39:54;;;;;;;6.93;6.33;;;23.70;28.50;;;;;;5022401;28;20453;-68
2022/12/12 12:43:06;;;;;;;8.43;7.57;;;24.10;27.60;;;;;;5028050;28;20432;-68
2022/12/12 12:45:48;;;;;;;8.37;6.97;;;24.70;27.20;;;;;;5037180;28;20507;-68
2022/12/12 12:48:17;;;;;;;11.10;7.37;;;24.20;26.90;;;;;;5028977;28;20466;-68
2022/12/12 12:51:00;;;;;;;9.50;8.37;;;23.60;27.40;;;;;;5028356;28;20459;-68
2022/12/12 12:53:49;;;;;;;17.03;6.90;;;22.60;27.90;;;;;;5038790;28;20444;-68
2022/12/12 12:56:21;;;;;;;5.70;5.10;;;22.90;27.60;;;;;;5031001;28;20538;-68
2022/12/12 12:58:49;;;;;;;4.90;4.33;;;21.90;27.00;;;;;;5024315;28;20867;-68
2022/12/12 13:01:23;;;;;;;6.23;4.27;;;23.10;27.20;;;;;;5031086;28;20453;-68
2022/12/12 13:04:24;;;;;;;4.30;3.90;;;24.00;26.20;;;;;;5030375;28;20515;-68
2022/12/12 13:07:01;;;;;;;6.33;5.07;;;25.10;25.30;;;;;;5028311;28;20805;-68